TimeEDT,TemperatureF,Dew PointF,Humidity,Sea Level PressureIn,VisibilityMPH,Wind Direction,Wind SpeedMPH,Gust SpeedMPH,PrecipitationIn,Events,Conditions,WindDirDegrees,DateUTC
12:54 AM,33.1,26.1,75,29.99,10.0,SSW,5.8,-,N/A,,Scattered Clouds,210,2013-10-25 04:54:00
1:54 AM,35.1,26.1,70,29.99,10.0,WSW,6.9,-,N/A,,Clear,240,2013-10-25 05:54:00
2:54 AM,32.0,26.1,79,30.01,10.0,SW,5.8,-,N/A,,Clear,220,2013-10-25 06:54:00
3:54 AM,30.0,25.0,82,30.01,10.0,SW,4.6,-,N/A,,Partly Cloudy,220,2013-10-25 07:54:00
4:54 AM,33.1,27.0,78,30.03,10.0,WSW,5.8,-,N/A,,Mostly Cloudy,240,2013-10-25 08:54:00
5:54 AM,30.0,27.0,88,30.05,10.0,SSW,3.5,-,N/A,,Clear,200,2013-10-25 09:54:00
6:54 AM,28.0,25.0,88,30.07,10.0,Calm,Calm,-,N/A,,Clear,0,2013-10-25 10:54:00
7:54 AM,30.9,28.0,89,30.10,10.0,WSW,3.5,-,N/A,,Clear,240,2013-10-25 11:54:00
8:54 AM,39.0,32.0,76,30.12,10.0,SW,5.8,-,N/A,,Clear,230,2013-10-25 12:54:00
9:54 AM,45.0,33.1,63,30.12,10.0,Variable,3.5,-,N/A,,Mostly Cloudy,0,2013-10-25 13:54:00
10:54 AM,46.0,32.0,58,30.12,10.0,Variable,6.9,-,N/A,,Overcast,0,2013-10-25 14:54:00
11:54 AM,46.9,32.0,56,30.13,10.0,NNW,11.5,17.3,0.00,,Overcast,330,2013-10-25 15:54:00
12:54 PM,46.9,30.9,54,30.13,10.0,NW,10.4,17.3,0.00,,Unknown,320,2013-10-25 16:54:00
1:54 PM,48.9,30.9,50,30.12,10.0,WNW,12.7,17.3,N/A,,Mostly Cloudy,300,2013-10-25 17:54:00
2:54 PM,48.9,30.0,48,30.12,10.0,West,11.5,24.2,N/A,,Overcast,280,2013-10-25 18:54:00
3:54 PM,51.1,30.0,44,30.12,10.0,West,10.4,18.4,N/A,,Mostly Cloudy,280,2013-10-25 19:54:00
4:54 PM,52.0,30.0,43,30.12,10.0,WNW,8.1,16.1,N/A,,Mostly Cloudy,290,2013-10-25 20:54:00
5:54 PM,48.0,28.0,46,30.14,10.0,NNW,6.9,-,N/A,,Clear,330,2013-10-25 21:54:00
6:54 PM,37.9,30.9,76,30.17,10.0,Calm,Calm,-,N/A,,Clear,0,2013-10-25 22:54:00
7:54 PM,34.0,28.0,79,30.18,10.0,Calm,Calm,-,N/A,,Clear,0,2013-10-25 23:54:00
8:54 PM,35.1,30.0,82,30.19,10.0,Calm,Calm,-,N/A,,Mostly Cloudy,0,2013-10-26 00:54:00
9:54 PM,34.0,28.9,82,30.20,10.0,Calm,Calm,-,N/A,,Mostly Cloudy,0,2013-10-26 01:54:00
10:54 PM,34.0,28.9,82,30.21,10.0,Calm,Calm,-,N/A,,Clear,0,2013-10-26 02:54:00
11:54 PM,30.9,28.0,89,30.21,10.0,SW,4.6,-,N/A,,Clear,220,2013-10-26 03:54:00